Time;durP1;ratioP1;P1;durP2;ratioP2;P2;SDS_P1;SDS_P2;PMS_P1;PMS_P2;Temp;Humidity;BMP_temperature;BMP_pressure;BME280_temperature;BME280_humidity;BME280_pressure;Samples;Min_cycle;Max_cycle;Signal;HPM_P1;HPM_P2
2020/12/07 00:01:21;;;;;;;3.60;3.20;;;3.20;99.90;;;;;;5090591;28;20461;-75
2020/12/07 00:03:47;;;;;;;5.50;2.93;;;3.20;99.90;;;;;;5095778;28;20206;-73
2020/12/07 00:06:20;;;;;;;8.37;3.87;;;3.30;99.90;;;;;;5090072;28;20641;-75
2020/12/07 00:08:46;;;;;;;4.10;3.10;;;3.20;99.90;;;;;;5097100;27;20186;-74
2020/12/07 00:11:15;;;;;;;2.87;2.60;;;3.30;99.90;;;;;;5095186;28;20917;-75
2020/12/07 00:13:41;;;;;;;2.87;2.67;;;3.30;99.90;;;;;;5088119;28;21080;-75
2020/12/07 00:16:08;;;;;;;7.90;3.67;;;3.30;99.90;;;;;;5100656;28;20436;-75
2020/12/07 00:18:35;;;;;;;3.47;3.23;;;3.30;99.90;;;;;;5098565;27;20183;-76
2020/12/07 00:21:01;;;;;;;4.47;3.40;;;3.30;99.90;;;;;;5113494;27;20500;-74
2020/12/07 00:23:27;;;;;;;3.40;3.10;;;3.30;99.90;;;;;;5100489;28;20446;-73
2020/12/07 00:25:52;;;;;;;3.60;3.30;;;3.30;99.90;;;;;;5092921;28;20396;-76
2020/12/07 00:28:18;;;;;;;2.90;2.70;;;3.30;99.90;;;;;;5100683;27;20587;-74
2020/12/07 00:30:46;;;;;;;4.83;4.00;;;3.30;99.90;;;;;;5105576;27;20656;-75
2020/12/07 00:33:11;;;;;;;3.90;3.60;;;3.30;99.90;;;;;;5109296;27;20625;-75
2020/12/07 00:35:37;;;;;;;3.90;3.60;;;3.30;99.90;;;;;;5123763;27;20422;-73
2020/12/07 00:38:03;;;;;;;3.70;3.40;;;3.30;99.90;;;;;;5104341;27;20649;-73
2020/12/07 00:40:28;;;;;;;4.90;4.50;;;3.30;99.90;;;;;;5092956;28;20207;-76
2020/12/07 00:42:54;;;;;;;4.07;3.67;;;3.30;99.90;;;;;;5123195;27;20211;-76
2020/12/07 00:45:19;;;;;;;3.83;3.50;;;3.30;99.90;;;;;;5096270;27;20598;-76
2020/12/07 00:47:45;;;;;;;3.63;3.33;;;3.30;99.90;;;;;;5104766;27;20552;-74
2020/12/07 00:50:11;;;;;;;4.10;3.10;;;3.40;99.90;;;;;;5107290;28;20260;-73
2020/12/07 00:52:38;;;;;;;3.73;3.43;;;3.30;99.90;;;;;;5110761;27;20207;-73
2020/12/07 00:55:04;;;;;;;3.53;2.90;;;3.30;99.90;;;;;;5100601;27;20425;-74
2020/12/07 00:57:30;;;;;;;3.07;2.80;;;3.30;99.90;;;;;;5104524;28;20401;-74
2020/12/07 00:59:56;;;;;;;3.83;3.43;;;3.30;99.90;;;;;;5100759;27;20782;-74
2020/12/07 01:02:21;;;;;;;5.17;3.97;;;3.30;99.90;;;;;;5100681;27;20643;-74
2020/12/07 01:04:47;;;;;;;3.50;3.20;;;3.20;99.90;;;;;;5105200;28;20262;-76
2020/12/07 01:07:13;;;;;;;4.70;4.30;;;3.20;99.90;;;;;;5110963;27;20236;-75
2020/12/07 01:09:38;;;;;;;3.60;3.30;;;3.20;99.90;;;;;;5101543;28;20202;-75
2020/12/07 01:12:05;;;;;;;4.60;3.10;;;3.20;99.90;;;;;;5101392;28;20544;-76
2020/12/07 01:14:30;;;;;;;3.17;2.87;;;3.20;99.90;;;;;;5096400;28;20340;-76
2020/12/07 01:16:58;;;;;;;3.60;2.93;;;3.20;99.90;;;;;;5108829;28;20763;-75
2020/12/07 01:19:25;;;;;;;3.33;3.13;;;3.20;99.90;;;;;;5097310;28;20218;-75
2020/12/07 01:21:51;;;;;;;2.63;2.43;;;3.20;99.90;;;;;;5108501;28;20541;-75
2020/12/07 01:24:17;;;;;;;2.40;2.10;;;3.10;99.90;;;;;;5112756;28;20822;-74
2020/12/07 01:26:42;;;;;;;2.70;2.50;;;3.10;99.90;;;;;;5108870;28;20565;-74
2020/12/07 01:29:08;;;;;;;3.30;3.00;;;3.10;99.90;;;;;;5098540;28;20408;-74
2020/12/07 01:31:34;;;;;;;3.53;3.03;;;3.20;99.90;;;;;;5101733;28;20436;-74
2020/12/07 01:34:00;;;;;;;3.67;3.37;;;3.20;99.90;;;;;;5104074;28;20241;-75
2020/12/07 01:36:26;;;;;;;3.70;3.20;;;3.10;99.90;;;;;;5105314;28;20185;-74
2020/12/07 01:38:52;;;;;;;2.57;2.37;;;3.10;99.90;;;;;;5109173;28;20466;-74
2020/12/07 01:41:18;;;;;;;2.83;2.63;;;3.20;99.90;;;;;;5107932;28;20957;-74
2020/12/07 01:43:44;;;;;;;3.67;2.30;;;3.20;99.90;;;;;;5110401;28;20441;-75
2020/12/07 01:46:19;;;;;;;6.20;3.20;;;3.20;99.90;;;;;;5102697;28;20449;-78
2020/12/07 01:48:45;;;;;;;2.83;2.63;;;3.20;99.90;;;;;;5100601;28;20384;-77
2020/12/07 01:51:11;;;;;;;3.10;2.90;;;3.10;99.90;;;;;;5104140;28;20486;-76
2020/12/07 01:53:37;;;;;;;3.33;2.70;;;3.20;99.90;;;;;;5117144;27;20407;-75
2020/12/07 01:56:04;;;;;;;3.57;2.53;;;3.10;99.90;;;;;;5100768;28;20425;-74
2020/12/07 01:58:30;;;;;;;3.23;2.93;;;3.10;99.90;;;;;;5092706;28;20178;-77
2020/12/07 02:00:56;;;;;;;2.93;2.73;;;3.10;99.90;;;;;;5100591;28;20465;-77
2020/12/07 02:03:21;;;;;;;2.60;2.40;;;3.10;99.90;;;;;;5100550;28;20235;-74
2020/12/07 02:05:47;;;;;;;3.00;2.70;;;3.10;99.90;;;;;;5095862;28;20184;-75
2020/12/07 02:08:18;;;;;;;5.80;3.37;;;3.00;99.90;;;;;;5109003;28;20179;-74
2020/12/07 02:10:45;;;;;;;3.10;2.20;;;3.00;99.90;;;;;;5100137;28;20187;-76
2020/12/07 02:13:11;;;;;;;2.17;1.97;;;3.10;99.90;;;;;;5106947;28;20441;-76
2020/12/07 02:15:37;;;;;;;4.07;2.57;;;3.10;99.90;;;;;;5088787;28;20460;-78
2020/12/07 02:18:05;;;;;;;2.73;2.53;;;3.10;99.90;;;;;;5072672;28;20423;-75
2020/12/07 02:20:31;;;;;;;2.47;2.30;;;3.20;99.90;;;;;;5104890;28;20465;-75
2020/12/07 02:22:56;;;;;;;3.40;3.10;;;3.10;99.90;;;;;;5104092;28;20440;-77
2020/12/07 02:25:22;;;;;;;5.47;2.53;;;3.10;99.90;;;;;;5118016;27;20176;-75
2020/12/07 02:27:50;;;;;;;2.83;2.70;;;3.10;99.90;;;;;;5108578;28;20188;-77
2020/12/07 02:30:20;;;;;;;8.93;2.03;;;3.10;99.90;;;;;;5101512;27;21065;-75
2020/12/07 02:32:47;;;;;;;1.90;1.80;;;3.10;99.90;;;;;;5107710;27;20867;-74
2020/12/07 02:35:14;;;;;;;2.90;2.60;;;3.10;99.90;;;;;;5129920;27;20519;-77
2020/12/07 02:37:41;;;;;;;3.80;2.67;;;3.10;99.90;;;;;;5110558;27;20414;-75
2020/12/07 02:40:08;;;;;;;2.30;2.10;;;3.20;99.90;;;;;;5113960;27;20913;-78
2020/12/07 02:42:38;;;;;;;3.30;3.00;;;3.20;99.90;;;;;;5103271;27;20453;-77
2020/12/07 02:45:06;;;;;;;2.40;2.20;;;3.20;99.90;;;;;;5092414;28;20479;-75
2020/12/07 02:47:32;;;;;;;1.90;1.70;;;3.20;99.90;;;;;;5100740;27;20410;-75
2020/12/07 02:49:58;;;;;;;3.60;1.93;;;3.20;99.90;;;;;;5103714;27;20465;-76
2020/12/07 02:52:25;;;;;;;2.53;2.33;;;3.20;99.90;;;;;;5098500;28;20447;-78
2020/12/07 02:54:57;;;;;;;4.90;3.00;;;3.20;99.90;;;;;;5111009;27;20448;-77
2020/12/07 02:57:23;;;;;;;3.67;3.20;;;3.10;99.90;;;;;;5130777;27;21019;-77
2020/12/07 02:59:50;;;;;;;3.10;2.90;;;3.10;99.90;;;;;;5103204;27;20556;-75
2020/12/07 03:02:16;;;;;;;3.23;2.93;;;3.10;99.90;;;;;;5111695;27;20408;-77
2020/12/07 03:04:42;;;;;;;3.37;3.10;;;3.10;99.90;;;;;;5108153;27;20470;-77
2020/12/07 03:07:08;;;;;;;3.00;2.77;;;3.10;99.90;;;;;;5115621;27;20661;-75
2020/12/07 03:09:34;;;;;;;2.90;2.70;;;3.10;99.90;;;;;;5118525;27;20432;-74
2020/12/07 03:12:00;;;;;;;3.23;2.20;;;3.10;99.90;;;;;;5102738;28;20664;-75
2020/12/07 03:14:26;;;;;;;3.40;3.10;;;3.10;99.90;;;;;;5107726;28;20171;-74
2020/12/07 03:16:53;;;;;;;3.27;2.97;;;3.10;99.90;;;;;;5111404;27;20915;-75
2020/12/07 03:19:19;;;;;;;3.23;2.77;;;3.00;99.90;;;;;;5101413;27;20781;-75
2020/12/07 03:21:45;;;;;;;4.40;2.60;;;3.10;99.90;;;;;;5114122;27;20843;-76
2020/12/07 03:24:11;;;;;;;2.60;2.40;;;3.10;99.90;;;;;;5108241;27;20203;-76
2020/12/07 03:26:36;;;;;;;3.00;2.70;;;3.10;99.90;;;;;;5096416;28;20412;-76
2020/12/07 03:29:03;;;;;;;3.23;2.97;;;3.10;99.90;;;;;;5103706;27;20261;-75
2020/12/07 03:31:33;;;;;;;3.53;3.23;;;3.00;99.90;;;;;;5095328;28;20221;-75
2020/12/07 03:34:00;;;;;;;3.27;2.97;;;3.00;99.90;;;;;;5111177;27;20784;-75
2020/12/07 03:36:26;;;;;;;3.67;3.40;;;3.00;99.90;;;;;;5117277;27;20400;-73
2020/12/07 03:38:52;;;;;;;3.97;3.67;;;2.90;99.90;;;;;;5120601;27;20394;-74
2020/12/07 03:41:18;;;;;;;3.23;3.00;;;2.90;99.90;;;;;;5096528;28;21025;-74
2020/12/07 03:43:44;;;;;;;3.67;3.23;;;3.00;99.90;;;;;;5105327;27;20507;-73
2020/12/07 03:46:10;;;;;;;3.20;3.00;;;3.00;99.90;;;;;;5099369;28;20454;-74
2020/12/07 03:48:36;;;;;;;3.20;2.90;;;3.00;99.90;;;;;;5113209;28;20412;-74
2020/12/07 03:51:02;;;;;;;5.17;3.53;;;2.90;99.90;;;;;;5098806;28;20551;-73
2020/12/07 03:53:33;;;;;;;3.60;3.30;;;3.00;99.90;;;;;;5114951;27;20211;-74
2020/12/07 03:55:59;;;;;;;3.50;3.30;;;3.00;99.90;;;;;;5114918;27;20402;-74
2020/12/07 03:58:26;;;;;;;3.60;3.33;;;3.00;99.90;;;;;;5103884;27;20403;-73
2020/12/07 04:00:52;;;;;;;4.10;3.70;;;3.00;99.90;;;;;;5087558;28;20493;-73
2020/12/07 04:03:19;;;;;;;3.13;2.90;;;2.90;99.90;;;;;;5105892;27;21004;-74
2020/12/07 04:05:47;;;;;;;3.57;3.27;;;3.00;99.90;;;;;;5104634;27;20430;-74
2020/12/07 04:08:13;;;;;;;4.47;3.30;;;2.90;99.90;;;;;;5101444;27;20417;-74
2020/12/07 04:10:39;;;;;;;2.80;2.60;;;2.90;99.90;;;;;;5113258;27;20462;-74
2020/12/07 04:13:06;;;;;;;3.83;2.97;;;3.00;99.90;;;;;;5115076;27;20446;-74
2020/12/07 04:15:32;;;;;;;3.40;3.10;;;3.00;99.90;;;;;;5103745;27;20497;-73
2020/12/07 04:17:58;;;;;;;2.50;2.40;;;3.00;99.90;;;;;;5099969;27;20478;-74
2020/12/07 04:20:24;;;;;;;6.80;2.50;;;3.00;99.90;;;;;;5110170;27;20479;-75
2020/12/07 04:22:50;;;;;;;2.70;2.50;;;2.90;99.90;;;;;;5101628;27;20444;-74
2020/12/07 04:25:16;;;;;;;2.80;2.60;;;3.00;99.90;;;;;;5106732;27;20190;-74
2020/12/07 04:27:41;;;;;;;2.73;2.53;;;3.00;99.90;;;;;;5093844;28;20397;-73
2020/12/07 04:30:07;;;;;;;4.10;3.27;;;3.00;99.90;;;;;;5121289;27;20178;-74
2020/12/07 04:32:33;;;;;;;3.27;3.07;;;3.00;99.90;;;;;;5104996;28;20191;-75
2020/12/07 04:34:58;;;;;;;2.83;2.63;;;3.00;99.90;;;;;;5086044;28;20192;-74
2020/12/07 04:37:25;;;;;;;2.90;2.60;;;3.00;99.90;;;;;;5092986;27;20189;-75
2020/12/07 04:39:51;;;;;;;3.50;3.20;;;3.00;99.90;;;;;;5094587;28;20202;-74
2020/12/07 04:42:16;;;;;;;3.23;2.70;;;3.10;99.90;;;;;;5111757;28;20482;-74
2020/12/07 04:44:43;;;;;;;3.23;2.93;;;3.10;99.90;;;;;;5107214;28;20192;-75
2020/12/07 04:47:10;;;;;;;4.47;2.90;;;3.10;99.90;;;;;;5086547;28;20464;-75
2020/12/07 04:49:36;;;;;;;3.30;3.00;;;3.10;99.90;;;;;;5115916;27;20504;-74
2020/12/07 04:52:02;;;;;;;3.30;3.00;;;3.10;99.90;;;;;;5103146;28;20564;-75
2020/12/07 04:54:29;;;;;;;4.60;3.70;;;3.10;99.90;;;;;;5110032;27;20478;-75
2020/12/07 04:56:58;;;;;;;6.60;4.37;;;3.10;99.90;;;;;;5092254;28;20184;-75
2020/12/07 04:59:24;;;;;;;4.93;4.50;;;3.10;99.90;;;;;;5079894;27;20414;-74
2020/12/07 05:01:51;;;;;;;4.77;4.37;;;3.10;99.90;;;;;;5091472;28;20529;-75
2020/12/07 05:04:16;;;;;;;5.47;4.87;;;3.10;99.90;;;;;;5101300;28;20812;-75
2020/12/07 05:06:42;;;;;;;3.77;3.50;;;3.20;99.90;;;;;;5111168;28;20416;-74
2020/12/07 05:09:11;;;;;;;3.50;3.20;;;3.10;99.90;;;;;;5102740;28;20571;-74
2020/12/07 05:11:37;;;;;;;3.37;2.90;;;3.10;99.90;;;;;;5108511;28;20502;-74
2020/12/07 05:14:12;;;;;;;3.10;2.80;;;3.10;99.90;;;;;;5092832;28;20546;-74
2020/12/07 05:16:37;;;;;;;2.93;2.70;;;3.20;99.90;;;;;;5099596;28;20410;-74
2020/12/07 05:19:12;;;;;;;2.93;2.53;;;3.20;99.90;;;;;;5088232;28;20873;-75
2020/12/07 05:21:38;;;;;;;3.90;2.53;;;3.20;99.90;;;;;;5121997;28;20213;-75
2020/12/07 05:24:06;;;;;;;2.87;2.67;;;3.20;99.90;;;;;;5096832;28;20453;-76
2020/12/07 05:26:33;;;;;;;2.77;2.57;;;3.20;99.90;;;;;;5115802;28;20456;-74
2020/12/07 05:29:07;;;;;;;4.67;2.87;;;3.20;99.90;;;;;;5087086;28;20427;-74
2020/12/07 05:31:34;;;;;;;3.90;2.80;;;3.20;99.90;;;;;;5088508;28;20444;-74
2020/12/07 05:34:00;;;;;;;3.27;2.93;;;3.20;99.90;;;;;;5092775;28;20980;-76
2020/12/07 05:36:26;;;;;;;4.97;2.40;;;3.20;99.90;;;;;;5101342;28;20434;-77
2020/12/07 05:38:52;;;;;;;5.77;2.63;;;3.20;99.90;;;;;;5104824;28;20428;-75
2020/12/07 05:41:24;;;;;;;2.50;2.40;;;3.20;99.90;;;;;;5083825;28;20808;-75
2020/12/07 05:43:53;;;;;;;4.90;2.40;;;3.20;99.90;;;;;;5106074;28;20270;-78
2020/12/07 05:46:28;;;;;;;3.07;2.77;;;3.20;99.90;;;;;;5096098;28;20412;-75
2020/12/07 05:48:55;;;;;;;2.87;2.67;;;3.20;99.90;;;;;;5113461;28;20989;-77
2020/12/07 05:51:26;;;;;;;4.00;2.90;;;3.20;99.90;;;;;;5106961;28;20421;-77
2020/12/07 05:53:53;;;;;;;3.90;3.07;;;3.20;99.90;;;;;;5120560;28;20528;-74
2020/12/07 05:56:19;;;;;;;4.27;3.70;;;3.20;99.90;;;;;;5119109;28;20407;-77
2020/12/07 05:58:53;;;;;;;4.47;3.30;;;3.20;99.90;;;;;;5126417;27;20901;-77
2020/12/07 06:01:23;;;;;;;4.20;3.90;;;3.20;99.90;;;;;;5095064;28;20790;-74
2020/12/07 06:03:52;;;;;;;5.03;2.70;;;3.20;99.90;;;;;;5098718;27;20457;-77
2020/12/07 06:06:32;;;;;;;3.93;3.63;;;3.20;99.90;;;;;;5101361;28;20872;-77
2020/12/07 06:09:05;;;;;;;3.17;2.97;;;3.20;99.90;;;;;;5097676;28;20437;-75
2020/12/07 06:11:39;;;;;;;3.10;2.90;;;3.20;99.90;;;;;;5099578;27;20421;-74
2020/12/07 06:14:06;;;;;;;7.90;3.87;;;3.20;99.90;;;;;;5123528;27;20529;-75
2020/12/07 06:16:41;;;;;;;3.67;3.37;;;3.20;99.90;;;;;;5122520;27;20806;-75
2020/12/07 06:19:15;;;;;;;3.47;3.20;;;3.20;99.90;;;;;;5094618;28;20582;-77
2020/12/07 06:21:57;;;;;;;3.83;3.53;;;3.20;99.90;;;;;;5108704;27;20471;-77
2020/12/07 06:24:40;;;;;;;4.90;3.20;;;3.10;99.90;;;;;;5098046;27;20452;-74
2020/12/07 06:27:11;;;;;;;3.60;3.30;;;3.10;99.90;;;;;;5106044;28;20389;-74
2020/12/07 06:29:37;;;;;;;5.50;3.97;;;3.00;99.90;;;;;;5091577;27;20453;-74
2020/12/07 06:32:04;;;;;;;6.93;4.53;;;3.00;99.90;;;;;;5105236;28;20408;-74
2020/12/07 06:34:42;;;;;;;10.40;3.23;;;3.00;99.90;;;;;;5099298;27;20441;-74
2020/12/07 06:37:10;;;;;;;3.60;3.23;;;3.00;99.90;;;;;;5127790;27;20401;-76
2020/12/07 06:39:46;;;;;;;4.63;3.40;;;2.90;99.90;;;;;;5102272;27;20441;-76
2020/12/07 06:42:13;;;;;;;4.83;4.23;;;3.00;99.90;;;;;;5105604;27;20466;-78
2020/12/07 06:44:44;;;;;;;7.70;4.80;;;2.90;99.90;;;;;;5094578;28;20445;-74
2020/12/07 06:47:19;;;;;;;4.63;4.23;;;2.90;99.90;;;;;;5106136;27;20439;-77
2020/12/07 06:50:01;;;;;;;6.87;5.37;;;2.90;99.90;;;;;;5102611;28;20432;-75
2020/12/07 06:52:29;;;;;;;4.60;4.00;;;2.90;99.90;;;;;;5111627;27;20426;-79
2020/12/07 06:55:09;;;;;;;5.40;4.63;;;2.90;99.90;;;;;;5111331;28;20762;-76
2020/12/07 06:57:49;;;;;;;6.17;4.77;;;3.00;99.90;;;;;;5102414;28;20437;-77
2020/12/07 07:00:34;;;;;;;13.23;5.00;;;3.00;99.90;;;;;;5104981;28;20807;-75
2020/12/07 07:02:59;;;;;;;7.33;5.13;;;3.00;99.90;;;;;;5108229;27;20427;-73
2020/12/07 07:05:29;;;;;;;7.03;4.90;;;3.00;99.90;;;;;;5107332;28;20422;-74
2020/12/07 07:07:55;;;;;;;6.60;5.30;;;3.00;99.90;;;;;;5088888;28;20180;-75
2020/12/07 07:10:21;;;;;;;6.73;5.13;;;3.00;99.90;;;;;;5095105;28;20450;-75
2020/12/07 07:12:48;;;;;;;5.80;5.30;;;3.00;99.90;;;;;;5087972;28;20438;-74
2020/12/07 07:15:14;;;;;;;7.33;5.20;;;2.90;99.90;;;;;;5102856;28;20628;-75
2020/12/07 07:17:42;;;;;;;8.20;4.90;;;3.00;99.90;;;;;;5124536;27;20453;-76
2020/12/07 07:20:09;;;;;;;5.33;4.70;;;3.00;99.90;;;;;;5115993;28;20396;-78
2020/12/07 07:22:39;;;;;;;10.13;5.63;;;3.00;99.90;;;;;;5095646;28;20673;-78
2020/12/07 07:30:16;;;;;;;7.10;5.50;;;3.10;99.90;;;;;;5111005;27;20194;-78
2020/12/07 07:32:45;;;;;;;5.37;4.70;;;3.20;99.90;;;;;;5096411;28;20420;-77
2020/12/07 07:35:12;;;;;;;8.50;6.03;;;3.20;99.90;;;;;;5089323;28;20407;-75
2020/12/07 07:37:39;;;;;;;8.63;6.00;;;3.30;99.90;;;;;;5099402;27;20400;-78
2020/12/07 07:40:16;;;;;;;6.93;5.80;;;3.30;99.90;;;;;;5092854;28;20434;-77
2020/12/07 07:42:48;;;;;;;7.23;5.50;;;3.40;99.90;;;;;;5104244;27;20419;-75
2020/12/07 07:45:15;;;;;;;6.20;5.60;;;3.40;99.90;;;;;;5096359;27;20507;-78
2020/12/07 08:17:17;;;;;;;7.47;5.80;;;3.80;99.90;;;;;;5113034;27;20415;-76
2020/12/07 08:19:44;;;;;;;5.90;5.40;;;3.90;99.90;;;;;;5114470;27;20387;-75
2020/12/07 08:22:13;;;;;;;6.90;6.17;;;4.00;99.90;;;;;;5108014;28;20470;-77
2020/12/07 08:24:55;;;;;;;6.30;5.03;;;4.20;99.90;;;;;;5089005;27;20766;-79
2020/12/07 08:27:21;;;;;;;6.60;5.33;;;4.30;99.90;;;;;;5096323;28;20788;-79
2020/12/07 08:29:47;;;;;;;7.70;5.47;;;4.50;99.90;;;;;;5102546;27;20392;-79
2020/12/07 08:32:24;;;;;;;5.23;4.40;;;4.60;99.90;;;;;;5091989;28;20188;-79
2020/12/07 08:34:50;;;;;;;5.53;4.80;;;4.70;99.90;;;;;;5095977;27;20554;-75
2020/12/07 08:37:17;;;;;;;6.23;5.00;;;4.90;99.90;;;;;;5093394;28;20484;-79
2020/12/07 08:39:42;;;;;;;6.27;5.13;;;4.90;99.90;;;;;;5094764;27;21019;-78
2020/12/07 08:42:08;;;;;;;6.03;5.13;;;5.00;99.90;;;;;;5094554;28;20431;-81
2020/12/07 08:44:34;;;;;;;5.30;4.80;;;5.10;99.90;;;;;;5095972;27;20276;-76
2020/12/07 08:46:59;;;;;;;5.07;4.60;;;5.20;99.90;;;;;;5094172;28;20176;-79
2020/12/07 08:49:25;;;;;;;4.70;4.30;;;5.20;99.90;;;;;;5109161;28;20208;-79
2020/12/07 08:51:53;;;;;;;4.07;3.67;;;5.30;99.90;;;;;;5096736;28;20661;-75
2020/12/07 08:54:18;;;;;;;7.37;4.63;;;5.50;99.90;;;;;;5089993;28;20245;-79
2020/12/07 08:56:44;;;;;;;5.20;4.17;;;5.60;99.90;;;;;;5093381;28;20420;-78
2020/12/07 08:59:10;;;;;;;4.23;3.63;;;5.60;99.90;;;;;;5096139;27;20193;-76
2020/12/07 09:01:35;;;;;;;4.23;3.60;;;5.50;99.90;;;;;;5096355;27;20202;-76
2020/12/07 09:04:03;;;;;;;5.10;4.50;;;5.60;99.90;;;;;;5093560;28;20710;-76
2020/12/07 09:06:28;;;;;;;6.27;4.00;;;5.80;99.90;;;;;;5092311;28;20682;-76
2020/12/07 09:08:54;;;;;;;3.70;3.40;;;6.20;99.90;;;;;;5073769;28;20584;-79
2020/12/07 09:11:20;;;;;;;3.50;2.90;;;6.50;99.90;;;;;;5077367;28;20186;-75
2020/12/07 09:13:46;;;;;;;3.30;3.10;;;6.60;99.90;;;;;;5095988;28;20763;-78
2020/12/07 09:16:12;;;;;;;4.00;3.70;;;7.10;99.90;;;;;;5107661;28;20543;-75
2020/12/07 09:18:39;;;;;;;4.77;3.60;;;7.60;99.90;;;;;;5102915;28;20420;-76
2020/12/07 09:21:05;;;;;;;3.67;3.37;;;8.30;99.90;;;;;;5101336;28;20460;-78
2020/12/07 09:23:32;;;;;;;7.60;3.53;;;8.40;99.90;;;;;;5101462;28;20992;-78
2020/12/07 09:25:58;;;;;;;4.53;3.80;;;8.60;99.90;;;;;;5116528;28;20414;-78
2020/12/07 09:28:24;;;;;;;3.47;3.17;;;9.00;99.90;;;;;;5097044;28;20428;-79
2020/12/07 09:30:49;;;;;;;5.33;2.83;;;9.40;99.90;;;;;;5105723;28;20183;-76
2020/12/07 09:33:15;;;;;;;3.07;2.87;;;9.40;99.90;;;;;;5096634;28;20630;-75
2020/12/07 09:35:41;;;;;;;3.20;3.00;;;9.20;99.90;;;;;;5097200;28;20229;-76
2020/12/07 09:38:08;;;;;;;5.53;2.70;;;9.50;99.90;;;;;;5095212;28;20175;-76
2020/12/07 09:40:34;;;;;;;4.17;3.73;;;9.60;99.90;;;;;;5092452;28;20474;-79
2020/12/07 09:43:01;;;;;;;2.77;2.57;;;10.00;99.90;;;;;;5105521;28;20442;-75
2020/12/07 09:45:27;;;;;;;4.23;3.80;;;9.90;99.90;;;;;;5095831;28;20456;-76
2020/12/07 09:47:53;;;;;;;6.73;3.00;;;9.60;99.90;;;;;;5132401;27;20468;-78
2020/12/07 09:50:19;;;;;;;4.17;2.53;;;9.30;99.90;;;;;;5093356;27;20429;-76
2020/12/07 09:52:45;;;;;;;2.50;2.30;;;8.90;99.90;;;;;;5110455;27;20453;-75
2020/12/07 09:55:10;;;;;;;3.43;3.10;;;8.40;99.90;;;;;;5106735;27;20226;-75
2020/12/07 09:57:36;;;;;;;3.30;3.00;;;8.40;99.90;;;;;;5103780;27;20207;-76
2020/12/07 10:00:04;;;;;;;4.00;3.70;;;8.40;99.90;;;;;;5099158;27;20197;-79
2020/12/07 10:02:30;;;;;;;3.23;2.93;;;8.50;99.90;;;;;;5108816;27;20309;-79
2020/12/07 10:04:55;;;;;;;3.40;2.73;;;8.50;99.90;;;;;;5108990;27;20444;-75
2020/12/07 10:07:21;;;;;;;3.10;2.90;;;8.10;99.90;;;;;;5123472;27;20188;-75
2020/12/07 10:09:47;;;;;;;3.30;3.10;;;8.40;99.90;;;;;;5104826;27;20211;-79
2020/12/07 10:12:12;;;;;;;4.00;3.40;;;8.40;99.90;;;;;;5091499;28;20694;-77
2020/12/07 10:14:38;;;;;;;4.77;3.97;;;8.40;99.90;;;;;;5106622;28;20176;-78
2020/12/07 10:17:04;;;;;;;3.23;3.03;;;8.40;99.90;;;;;;5097617;28;20187;-79
2020/12/07 10:19:30;;;;;;;3.77;2.73;;;8.20;99.90;;;;;;5110802;27;20211;-79
2020/12/07 10:21:56;;;;;;;3.10;2.80;;;8.30;99.90;;;;;;5109901;27;20495;-78
2020/12/07 10:24:22;;;;;;;10.17;3.83;;;8.20;99.90;;;;;;5113015;27;20228;-75
2020/12/07 10:26:48;;;;;;;3.60;3.40;;;8.30;99.90;;;;;;5097026;28;20206;-77
2020/12/07 10:29:14;;;;;;;3.67;3.17;;;8.20;99.90;;;;;;5097975;28;20431;-78
2020/12/07 10:31:40;;;;;;;4.20;2.90;;;7.80;99.90;;;;;;5097484;27;20436;-76
2020/12/07 10:34:05;;;;;;;4.10;2.80;;;7.50;99.90;;;;;;5121405;27;20537;-79
2020/12/07 10:36:31;;;;;;;2.27;2.17;;;7.40;99.90;;;;;;5096945;27;20187;-76
2020/12/07 10:38:57;;;;;;;2.90;2.60;;;7.20;99.90;;;;;;5101963;28;20188;-78
2020/12/07 10:41:27;;;;;;;3.10;2.90;;;7.00;99.90;;;;;;5106954;27;20300;-76
2020/12/07 10:43:53;;;;;;;2.87;2.60;;;6.90;99.90;;;;;;5110698;27;20250;-75
2020/12/07 10:46:19;;;;;;;2.90;2.70;;;6.90;99.90;;;;;;5106309;27;20428;-75
2020/12/07 10:48:44;;;;;;;4.20;3.03;;;7.20;99.90;;;;;;5110855;27;20388;-77
2020/12/07 10:51:14;;;;;;;3.23;3.00;;;7.80;99.90;;;;;;5098883;27;20227;-76
2020/12/07 10:53:40;;;;;;;3.40;3.10;;;8.20;99.90;;;;;;5103742;28;20677;-78
2020/12/07 10:56:07;;;;;;;2.73;2.53;;;8.60;99.90;;;;;;5118349;27;20535;-75
2020/12/07 10:58:34;;;;;;;2.87;2.67;;;9.10;99.90;;;;;;5108293;27;20729;-77
2020/12/07 11:01:00;;;;;;;2.70;1.97;;;9.40;99.90;;;;;;5094546;28;20504;-77
2020/12/07 11:03:25;;;;;;;3.00;2.80;;;9.60;99.90;;;;;;5083771;28;20443;-78
2020/12/07 11:05:51;;;;;;;2.97;2.77;;;9.50;99.90;;;;;;5098956;28;20282;-79
2020/12/07 11:10:43;;;;;;;2.53;2.33;;;9.40;99.90;;;;;;5134812;27;20183;-75
2020/12/07 11:15:49;;;;;;;2.63;2.43;;;8.40;99.90;;;;;;5125336;27;20231;-76
2020/12/07 11:18:15;;;;;;;3.30;3.10;;;7.90;99.90;;;;;;5096158;28;20459;-76
2020/12/07 11:20:41;;;;;;;2.63;2.30;;;7.70;99.90;;;;;;5105281;28;20200;-78
2020/12/07 11:23:07;;;;;;;2.10;2.00;;;7.60;99.90;;;;;;5079614;28;20192;-76
2020/12/07 11:25:32;;;;;;;3.37;2.53;;;7.40;99.90;;;;;;5095978;28;20256;-79
2020/12/07 11:27:58;;;;;;;2.70;2.50;;;7.30;99.90;;;;;;5088356;28;20275;-77
2020/12/07 11:30:23;;;;;;;5.93;3.37;;;7.30;99.90;;;;;;5098686;28;20183;-78
2020/12/07 11:32:49;;;;;;;5.63;2.93;;;7.10;99.90;;;;;;5089236;28;20248;-76
2020/12/07 11:35:15;;;;;;;3.40;3.10;;;7.10;99.90;;;;;;5095929;27;20686;-78
2020/12/07 11:37:41;;;;;;;3.30;3.10;;;7.00;99.90;;;;;;5116623;27;20172;-75
2020/12/07 11:45:06;;;;;;;3.50;3.03;;;6.50;99.90;;;;;;5105776;28;20383;-78
2020/12/07 11:47:32;;;;;;;4.10;3.60;;;6.40;99.90;;;;;;5113251;28;20372;-76
2020/12/07 11:49:58;;;;;;;3.20;3.00;;;6.40;99.90;;;;;;5111554;27;20191;-77
2020/12/07 11:52:24;;;;;;;4.50;3.37;;;6.30;99.90;;;;;;5115204;27;20620;-76
2020/12/07 11:54:50;;;;;;;4.37;3.10;;;6.40;99.90;;;;;;5103652;22;20226;-76
2020/12/07 11:57:15;;;;;;;2.67;2.43;;;6.40;99.90;;;;;;5087955;28;20398;-75
2020/12/07 11:59:41;;;;;;;7.50;3.23;;;6.60;99.90;;;;;;5081627;28;20702;-75
2020/12/07 12:02:07;;;;;;;2.50;2.30;;;6.50;99.90;;;;;;5081996;28;20214;-76
2020/12/07 12:04:33;;;;;;;5.50;2.50;;;6.40;99.90;;;;;;5080228;28;20445;-76
2020/12/07 12:06:59;;;;;;;8.97;6.50;;;6.50;99.90;;;;;;5082136;28;20198;-76
2020/12/07 12:09:24;;;;;;;3.33;2.90;;;6.40;99.90;;;;;;5083667;28;20448;-76
2020/12/07 12:11:50;;;;;;;2.63;2.37;;;6.40;99.90;;;;;;5077562;28;20191;-75
2020/12/07 12:14:15;;;;;;;2.57;2.20;;;6.40;99.90;;;;;;5081489;28;20671;-76
2020/12/07 12:16:41;;;;;;;3.20;2.67;;;6.50;99.90;;;;;;5078524;28;20187;-75
2020/12/07 12:19:09;;;;;;;3.07;2.77;;;6.60;99.90;;;;;;5079551;28;20205;-75
2020/12/07 12:21:36;;;;;;;2.67;2.33;;;6.50;99.90;;;;;;5081173;28;20195;-76
2020/12/07 12:24:05;;;;;;;2.60;2.40;;;6.30;99.90;;;;;;5080040;28;20452;-75
2020/12/07 12:26:36;;;;;;;2.30;2.20;;;6.10;99.90;;;;;;5079674;28;20388;-76
2020/12/07 12:29:03;;;;;;;2.47;2.37;;;5.90;99.90;;;;;;5081330;28;20516;-75
2020/12/07 12:31:28;;;;;;;2.83;2.50;;;5.90;99.90;;;;;;5081069;28;20801;-77
2020/12/07 12:33:55;;;;;;;2.17;2.07;;;5.90;99.90;;;;;;5079069;28;20514;-76
2020/12/07 12:36:24;;;;;;;2.40;1.90;;;6.00;99.90;;;;;;5079325;28;20283;-76
2020/12/07 12:38:50;;;;;;;2.60;2.40;;;5.80;99.90;;;;;;5081585;28;20527;-76
2020/12/07 12:41:16;;;;;;;2.20;2.03;;;5.80;99.90;;;;;;5081527;28;20439;-76
2020/12/07 12:43:42;;;;;;;2.77;2.57;;;5.70;99.90;;;;;;5080911;28;20499;-76
2020/12/07 12:46:08;;;;;;;2.93;2.57;;;5.80;99.90;;;;;;5083472;28;20501;-76
2020/12/07 12:48:34;;;;;;;3.03;2.17;;;5.80;99.90;;;;;;5081202;28;20236;-76
2020/12/07 12:51:00;;;;;;;2.20;2.10;;;5.80;99.90;;;;;;5080308;28;20215;-77
2020/12/07 12:53:27;;;;;;;2.23;2.13;;;5.80;99.90;;;;;;5079336;28;20437;-77
2020/12/07 12:55:53;;;;;;;4.23;2.40;;;5.70;99.90;;;;;;5080351;28;20435;-77
2020/12/07 12:58:19;;;;;;;3.00;2.40;;;5.70;99.90;;;;;;5082023;28;20490;-76
2020/12/07 13:00:46;;;;;;;3.13;2.90;;;5.60;99.90;;;;;;5079293;28;20217;-76
2020/12/07 13:03:12;;;;;;;2.50;2.40;;;5.60;99.90;;;;;;5081145;28;20174;-76
2020/12/07 13:05:38;;;;;;;2.67;2.50;;;5.70;99.90;;;;;;5081433;28;20420;-77
2020/12/07 13:08:03;;;;;;;3.30;2.93;;;5.60;99.90;;;;;;5082306;28;20408;-76
2020/12/07 13:10:29;;;;;;;3.83;2.83;;;5.70;99.90;;;;;;5079439;28;20285;-77
2020/12/07 13:12:54;;;;;;;3.23;3.03;;;5.70;99.90;;;;;;5082691;28;20181;-76
2020/12/07 13:15:21;;;;;;;4.30;3.20;;;5.60;99.90;;;;;;5080973;28;20268;-76
2020/12/07 13:17:53;;;;;;;3.47;2.73;;;5.60;99.90;;;;;;5081054;28;20175;-75
2020/12/07 13:20:26;;;;;;;3.80;3.50;;;5.60;99.90;;;;;;5078235;28;20950;-77
2020/12/07 13:23:01;;;;;;;4.33;4.00;;;5.60;99.90;;;;;;5078960;28;20428;-76
2020/12/07 13:25:37;;;;;;;3.20;3.00;;;5.50;99.90;;;;;;5079220;28;20416;-76
2020/12/07 13:28:35;;;;;;;4.13;3.73;;;5.40;99.90;;;;;;5083258;28;20924;-76
2020/12/07 13:30:54;;;;;;;3.50;3.30;;;5.30;99.90;;;;;;5081618;28;20487;-76
2020/12/07 13:33:20;;;;;;;3.17;2.97;;;5.40;99.90;;;;;;5083208;28;20519;-75
2020/12/07 13:35:45;;;;;;;5.47;4.90;;;5.30;99.90;;;;;;5081893;28;20264;-76
2020/12/07 13:38:11;;;;;;;4.20;3.87;;;5.30;99.90;;;;;;5079249;28;20650;-76
2020/12/07 13:40:37;;;;;;;4.70;3.57;;;5.20;99.90;;;;;;5078676;28;20240;-76
2020/12/07 13:43:04;;;;;;;5.97;4.47;;;5.20;99.90;;;;;;5080292;28;20601;-78